Time;durP1;ratioP1;P1;durP2;ratioP2;P2;SDS_P1;SDS_P2;PMS_P1;PMS_P2;Temp;Humidity;BMP_temperature;BMP_pressure;BME280_temperature;BME280_humidity;BME280_pressure;Samples;Min_cycle;Max_cycle;Signal;HPM_P1;HPM_P2
2023/01/04 00:00:17;;;;;;;0.20;0.20;;;;;;;;;;5010089;28;20052;-73
2023/01/04 00:02:42;;;;;;;1.88;1.75;;;;;;;;;;5008845;28;20025;-74
2023/01/04 00:05:08;;;;;;;0.38;0.38;;;;;;;;;;5008466;28;20034;-74
2023/01/04 00:07:33;;;;;;;0.35;0.35;;;;;;;;;;5009339;28;20393;-74
2023/01/04 00:09:59;;;;;;;0.38;0.38;;;;;;;;;;5009806;28;20042;-74
2023/01/04 00:12:24;;;;;;;0.20;0.20;;;;;;;;;;5008914;28;20491;-74
2023/01/04 00:14:50;;;;;;;0.63;0.63;;;;;;;;;;5008688;28;20046;-73
2023/01/04 00:17:15;;;;;;;1.33;1.23;;;;;;;;;;5010475;28;20029;-73
2023/01/04 00:19:40;;;;;;;1.27;1.20;;;;;;;;;;5014693;28;20026;-73
2023/01/04 00:22:06;;;;;;;4.90;2.40;;;;;;;;;;5013904;28;20017;-73
2023/01/04 00:24:31;;;;;;;3.38;2.03;;;;;;;;;;5012416;28;20365;-73
2023/01/04 00:26:57;;;;;;;0.50;0.50;;;;;;;;;;5012067;28;20432;-73
2023/01/04 00:29:22;;;;;;;0.63;0.63;;;;;;;;;;5011747;28;20041;-74
2023/01/04 00:31:47;;;;;;;3.95;3.63;;;;;;;;;;4994324;28;20022;-74
2023/01/04 00:34:14;;;;;;;2.25;2.15;;;;;;;;;;5012186;28;20030;-74
2023/01/04 00:36:40;;;;;;;5.05;3.83;;;;;;;;;;5020546;28;20093;-76
2023/01/04 00:39:06;;;;;;;1.35;1.33;;;;;;;;;;5002130;28;1260088;-73
2023/01/04 00:41:39;;;;;;;0.32;0.32;;;;;;;;;;5054304;28;20064;-74
2023/01/04 00:44:05;;;;;;;1.45;1.27;;;;;;;;;;5035851;28;20064;-73
2023/01/04 00:46:31;;;;;;;0.43;0.43;;;;;;;;;;5000492;28;20539;-74
2023/01/04 00:48:57;;;;;;;0.20;0.20;;;;;;;;;;5016766;28;20033;-73
2023/01/04 00:51:23;;;;;;;0.20;0.20;;;;;;;;;;5034436;28;20071;-72
2023/01/04 00:53:50;;;;;;;0.38;0.38;;;;;;;;;;5016846;28;20053;-73
2023/01/04 00:56:15;;;;;;;0.20;0.20;;;;;;;;;;5034473;28;20022;-74
2023/01/04 00:58:41;;;;;;;1.27;1.27;;;;;;;;;;5034086;28;20581;-73
2023/01/04 01:01:07;;;;;;;0.93;0.93;;;;;;;;;;5034283;28;20488;-74
2023/01/04 01:03:32;;;;;;;0.40;0.40;;;;;;;;;;5034433;28;20033;-75
2023/01/04 01:06:01;;;;;;;1.50;1.40;;;;;;;;;;5034378;28;20544;-74
2023/01/04 01:08:27;;;;;;;0.20;0.20;;;;;;;;;;5034251;28;20465;-74
2023/01/04 01:10:53;;;;;;;1.85;1.75;;;;;;;;;;5034039;28;20028;-74
2023/01/04 01:13:18;;;;;;;0.40;0.40;;;;;;;;;;5033504;28;20022;-74
2023/01/04 01:15:44;;;;;;;1.10;1.10;;;;;;;;;;5033848;28;20052;-75
2023/01/04 01:18:09;;;;;;;0.50;0.50;;;;;;;;;;5034000;28;20457;-75
2023/01/04 01:20:39;;;;;;;1.02;1.02;;;;;;;;;;5034001;28;20071;-73
2023/01/04 01:23:04;;;;;;;;;;;;;;;;;;5016631;28;20108;-73
2023/01/04 01:25:32;;;;;;;0.20;0.20;;;;;;;;;;5034195;28;19951;-73
2023/01/04 01:27:57;;;;;;;0.43;0.43;;;;;;;;;;5033567;28;20283;-73
2023/01/04 01:30:23;;;;;;;3.00;2.80;;;;;;;;;;5033767;28;20082;-73
2023/01/04 01:32:48;;;;;;;1.58;1.48;;;;;;;;;;5033514;28;20457;-73
2023/01/04 01:35:14;;;;;;;1.52;1.42;;;;;;;;;;5033415;28;20014;-73
2023/01/04 01:37:39;;;;;;;0.65;0.65;;;;;;;;;;5033413;28;20171;-73
2023/01/04 01:40:05;;;;;;;1.30;1.25;;;;;;;;;;5033581;28;20021;-73
2023/01/04 01:42:30;;;;;;;0.20;0.20;;;;;;;;;;5033371;28;20040;-73
2023/01/04 01:45:10;;;;;;;1.00;1.00;;;;;;;;;;5033386;28;20025;-74
2023/01/04 01:47:51;;;;;;;0.10;0.10;;;;;;;;;;5033653;28;20098;-73
2023/01/04 01:50:23;;;;;;;0.75;0.75;;;;;;;;;;5032768;28;20040;-73
2023/01/04 01:52:53;;;;;;;0.47;0.47;;;;;;;;;;5033455;28;20030;-74
2023/01/04 01:55:21;;;;;;;2.72;1.80;;;;;;;;;;5033389;28;20477;-73
2023/01/04 01:57:51;;;;;;;3.08;2.95;;;;;;;;;;5033208;28;20060;-73
2023/01/04 02:00:16;;;;;;;5.40;5.10;;;;;;;;;;5033499;28;20013;-73
2023/01/04 02:02:47;;;;;;;0.77;0.77;;;;;;;;;;5033385;28;20159;-73
2023/01/04 02:05:13;;;;;;;0.85;0.85;;;;;;;;;;5015719;28;20021;-74
2023/01/04 02:07:38;;;;;;;0.32;0.32;;;;;;;;;;5033122;28;20080;-74
2023/01/04 02:10:04;;;;;;;0.22;0.22;;;;;;;;;;5032720;28;20029;-74
2023/01/04 02:12:29;;;;;;;0.55;0.55;;;;;;;;;;5033323;28;20025;-74
2023/01/04 02:14:55;;;;;;;0.88;0.88;;;;;;;;;;5033271;28;20029;-73
2023/01/04 02:17:29;;;;;;;1.67;1.58;;;;;;;;;;5015660;28;20025;-73
2023/01/04 02:20:01;;;;;;;0.70;0.70;;;;;;;;;;5033229;28;20013;-73
2023/01/04 02:22:45;;;;;;;0.43;0.43;;;;;;;;;;5033003;28;20025;-73
2023/01/04 02:25:29;;;;;;;0.10;0.10;;;;;;;;;;5033219;28;20036;-73
2023/01/04 02:27:57;;;;;;;0.80;0.80;;;;;;;;;;5037169;28;20036;-73
2023/01/04 02:30:31;;;;;;;0.20;0.20;;;;;;;;;;5035945;28;20034;-74
2023/01/04 02:33:02;;;;;;;0.10;0.10;;;;;;;;;;5037013;28;20033;-73
2023/01/04 02:35:32;;;;;;;2.20;2.10;;;;;;;;;;5035903;28;20067;-73
2023/01/04 02:38:03;;;;;;;1.35;1.35;;;;;;;;;;5036806;28;20572;-73
2023/01/04 02:40:47;;;;;;;0.32;0.32;;;;;;;;;;5037021;28;20021;-73
2023/01/04 02:46:29;;;;;;;0.50;0.45;;;;;;;;;;5019354;28;20033;-73
2023/01/04 02:51:42;;;;;;;0.22;0.22;;;;;;;;;;5051839;28;20037;-73
2023/01/04 02:54:12;;;;;;;0.20;0.20;;;;;;;;;;5056593;28;20108;-73
2023/01/04 02:56:48;;;;;;;0.20;0.20;;;;;;;;;;5056573;28;20151;-73
2023/01/04 02:59:43;;;;;;;2.05;1.95;;;;;;;;;;5056887;28;20417;-73
2023/01/04 03:08:03;;;;;;;0.13;0.13;;;;;;;;;;5056040;28;20472;-73
2023/01/04 03:10:28;;;;;;;0.63;0.63;;;;;;;;;;5056168;28;20037;-73
2023/01/04 03:12:57;;;;;;;0.77;0.77;;;;;;;;;;5056282;28;20575;-73
2023/01/04 03:15:25;;;;;;;0.40;0.40;;;;;;;;;;5056215;28;20028;-73
2023/01/04 03:18:13;;;;;;;1.20;0.85;;;;;;;;;;5056199;28;20017;-73
2023/01/04 03:20:40;;;;;;;0.10;0.10;;;;;;;;;;5056265;28;20029;-73
2023/01/04 03:36:59;;;;;;;0.25;0.25;;;;;;;;;;5055471;28;20441;-74
2023/01/04 03:48:30;;;;;;;0.20;0.20;;;;;;;;;;5055413;28;20474;-73
2023/01/04 03:51:01;;;;;;;0.10;0.10;;;;;;;;;;5055568;28;20021;-73
2023/01/04 03:53:27;;;;;;;0.20;0.20;;;;;;;;;;5054352;28;20503;-73
2023/01/04 03:55:54;;;;;;;1.83;1.75;;;;;;;;;;5035278;28;20017;-74
2023/01/04 03:58:20;;;;;;;0.38;0.38;;;;;;;;;;5035453;28;20029;-74
2023/01/04 04:00:46;;;;;;;1.55;1.48;;;;;;;;;;5035173;28;20531;-74
2023/01/04 04:03:11;;;;;;;0.10;0.10;;;;;;;;;;5040736;28;20017;-74
2023/01/04 04:08:29;;;;;;;0.35;0.35;;;;;;;;;;5051659;28;20028;-73
2023/01/04 04:10:56;;;;;;;0.20;0.20;;;;;;;;;;5051256;28;20557;-73
2023/01/04 04:13:22;;;;;;;0.32;0.32;;;;;;;;;;5051436;28;20041;-73
2023/01/04 04:15:47;;;;;;;0.10;0.10;;;;;;;;;;5051251;28;20353;-73
2023/01/04 04:18:13;;;;;;;0.32;0.32;;;;;;;;;;5050837;28;20036;-73
2023/01/04 04:20:38;;;;;;;0.20;0.20;;;;;;;;;;5050493;28;20061;-72
2023/01/04 04:23:04;;;;;;;0.10;0.10;;;;;;;;;;5050599;28;20051;-73
2023/01/04 04:25:29;;;;;;;0.30;0.30;;;;;;;;;;5051134;28;20021;-73
2023/01/04 04:27:54;;;;;;;0.10;0.10;;;;;;;;;;5051212;28;20052;-73
2023/01/04 04:30:20;;;;;;;0.10;0.10;;;;;;;;;;5032541;28;20082;-73
2023/01/04 04:32:45;;;;;;;0.30;0.30;;;;;;;;;;5032766;28;20083;-74
2023/01/04 04:35:11;;;;;;;0.20;0.20;;;;;;;;;;5041650;28;20009;-73
2023/01/04 04:37:36;;;;;;;0.10;0.10;;;;;;;;;;5050491;28;20333;-75
2023/01/04 04:40:05;;;;;;;1.65;1.63;;;;;;;;;;5050068;28;20098;-73
2023/01/04 04:42:30;;;;;;;0.50;0.43;;;;;;;;;;5050150;28;20064;-74
2023/01/04 04:44:56;;;;;;;0.10;0.10;;;;;;;;;;5050457;28;20064;-74
2023/01/04 04:47:21;;;;;;;0.10;0.10;;;;;;;;;;5050563;28;20111;-73
2023/01/04 04:49:46;;;;;;;0.10;0.10;;;;;;;;;;5049688;28;20036;-73
2023/01/04 04:52:12;;;;;;;0.10;0.10;;;;;;;;;;5050485;28;20017;-73
2023/01/04 04:54:37;;;;;;;0.13;0.13;;;;;;;;;;5032860;28;20039;-73
2023/01/04 04:57:03;;;;;;;0.28;0.28;;;;;;;;;;5050570;28;20017;-74
2023/01/04 04:59:28;;;;;;;0.10;0.10;;;;;;;;;;5050500;28;20472;-73
2023/01/04 05:01:54;;;;;;;0.45;0.45;;;;;;;;;;5034386;28;20033;-74
2023/01/04 05:04:19;;;;;;;0.68;0.68;;;;;;;;;;5030370;28;20020;-74
2023/01/04 05:06:46;;;;;;;0.10;0.10;;;;;;;;;;5013299;28;20453;-73
2023/01/04 05:09:12;;;;;;;1.23;1.15;;;;;;;;;;5029225;28;20040;-73
2023/01/04 05:14:21;;;;;;;0.20;0.20;;;;;;;;;;5034566;28;20033;-73
2023/01/04 05:16:47;;;;;;;0.20;0.20;;;;;;;;;;5050284;28;20020;-73
2023/01/04 05:19:12;;;;;;;0.25;0.25;;;;;;;;;;5050230;28;20116;-74
2023/01/04 05:21:39;;;;;;;7.47;7.10;;;;;;;;;;5041785;28;20456;-73
2023/01/04 05:24:05;;;;;;;0.10;0.10;;;;;;;;;;5030271;28;20471;-73
2023/01/04 05:26:30;;;;;;;0.20;0.20;;;;;;;;;;5029927;28;20027;-74
2023/01/04 05:28:56;;;;;;;1.48;1.45;;;;;;;;;;5029924;28;20033;-73
2023/01/04 05:31:22;;;;;;;0.20;0.20;;;;;;;;;;5030187;28;20033;-73
2023/01/04 05:33:47;;;;;;;0.20;0.20;;;;;;;;;;5029810;28;20060;-74
2023/01/04 05:36:12;;;;;;;0.10;0.10;;;;;;;;;;5028609;28;20416;-74
2023/01/04 05:38:38;;;;;;;0.10;0.10;;;;;;;;;;5029607;28;20041;-73
2023/01/04 05:42:23;;;;;;;0.10;0.10;;;;;;;;;;5030188;28;20026;-75
2023/01/04 05:43:49;;;;;;;0.38;0.38;;;;;;;;;;5029330;28;20042;-74
2023/01/04 05:46:14;;;;;;;0.40;0.40;;;;;;;;;;5028403;28;20018;-74
2023/01/04 05:48:39;;;;;;;0.10;0.10;;;;;;;;;;5029292;28;20037;-74
2023/01/04 05:51:05;;;;;;;0.20;0.20;;;;;;;;;;5029778;28;20022;-74
2023/01/04 05:53:30;;;;;;;0.10;0.10;;;;;;;;;;5028645;28;20067;-73
2023/01/04 05:55:56;;;;;;;0.10;0.10;;;;;;;;;;5029442;28;20034;-74
2023/01/04 05:58:21;;;;;;;0.10;0.10;;;;;;;;;;5029368;28;20040;-73
2023/01/04 06:00:46;;;;;;;0.20;0.20;;;;;;;;;;5029283;28;20021;-73
2023/01/04 06:03:12;;;;;;;0.10;0.10;;;;;;;;;;5029825;28;20029;-73
2023/01/04 06:05:37;;;;;;;13.45;5.45;;;;;;;;;;5029335;28;20017;-73
2023/01/04 06:08:03;;;;;;;0.30;0.30;;;;;;;;;;5028155;28;20040;-73
2023/01/04 06:10:28;;;;;;;0.40;0.40;;;;;;;;;;5033509;28;20506;-74
2023/01/04 06:12:54;;;;;;;0.10;0.10;;;;;;;;;;5028291;28;20029;-74
2023/01/04 06:15:19;;;;;;;0.10;0.10;;;;;;;;;;5026335;28;20017;-73
2023/01/04 06:17:45;;;;;;;0.15;0.15;;;;;;;;;;5027706;28;20388;-74
2023/01/04 06:20:10;;;;;;;0.20;0.20;;;;;;;;;;5031940;28;20017;-73
2023/01/04 06:22:36;;;;;;;0.10;0.10;;;;;;;;;;5036188;28;20104;-73
2023/01/04 06:25:01;;;;;;;0.28;0.28;;;;;;;;;;5027475;28;20091;-74
2023/01/04 06:27:27;;;;;;;0.30;0.30;;;;;;;;;;5026812;28;20711;-74
2023/01/04 06:29:52;;;;;;;1.45;1.35;;;;;;;;;;5028877;28;20125;-74
2023/01/04 06:32:18;;;;;;;0.20;0.20;;;;;;;;;;5028510;28;20053;-74
2023/01/04 06:34:43;;;;;;;0.82;0.82;;;;;;;;;;5027261;28;20034;-74
2023/01/04 06:37:09;;;;;;;0.10;0.10;;;;;;;;;;5027097;28;20093;-74
2023/01/04 06:39:35;;;;;;;0.20;0.20;;;;;;;;;;5008962;28;20047;-74
2023/01/04 06:42:01;;;;;;;0.20;0.20;;;;;;;;;;5026812;28;20025;-73
2023/01/04 06:44:27;;;;;;;0.10;0.10;;;;;;;;;;5027191;28;20108;-74
2023/01/04 06:46:52;;;;;;;0.10;0.10;;;;;;;;;;5026691;28;20025;-74
2023/01/04 06:49:17;;;;;;;0.20;0.20;;;;;;;;;;5026767;28;20477;-74
2023/01/04 06:51:43;;;;;;;0.20;0.20;;;;;;;;;;5026550;28;20113;-73
2023/01/04 06:54:10;;;;;;;0.10;0.10;;;;;;;;;;5027207;28;20342;-73
2023/01/04 06:56:36;;;;;;;0.20;0.20;;;;;;;;;;5027613;28;20678;-74
2023/01/04 06:59:01;;;;;;;0.20;0.20;;;;;;;;;;5027610;28;20025;-74
2023/01/04 07:01:27;;;;;;;0.17;0.17;;;;;;;;;;5028620;28;20021;-74
2023/01/04 07:03:52;;;;;;;0.20;0.20;;;;;;;;;;5028641;28;20049;-73
2023/01/04 07:06:18;;;;;;;0.17;0.17;;;;;;;;;;5011435;28;20020;-73
2023/01/04 07:08:43;;;;;;;0.10;0.10;;;;;;;;;;5028513;28;20095;-73
2023/01/04 07:11:08;;;;;;;0.20;0.20;;;;;;;;;;5027532;28;20032;-73
2023/01/04 07:13:34;;;;;;;0.17;0.17;;;;;;;;;;5032241;28;20047;-73
2023/01/04 07:15:59;;;;;;;0.20;0.20;;;;;;;;;;5013981;28;20029;-73
2023/01/04 07:18:25;;;;;;;0.30;0.30;;;;;;;;;;5032625;28;20034;-73
2023/01/04 07:20:50;;;;;;;0.43;0.43;;;;;;;;;;5032042;28;20023;-73
2023/01/04 07:23:16;;;;;;;14.05;13.15;;;;;;;;;;5036665;28;20072;-73
2023/01/04 07:25:41;;;;;;;0.20;0.20;;;;;;;;;;5049117;28;20072;-73
2023/01/04 07:28:07;;;;;;;0.20;0.20;;;;;;;;;;5052786;28;20024;-73
2023/01/04 07:30:33;;;;;;;0.20;0.20;;;;;;;;;;5051981;28;20025;-73
2023/01/04 07:32:58;;;;;;;0.20;0.20;;;;;;;;;;5051990;28;20036;-72
2023/01/04 07:35:24;;;;;;;0.20;0.20;;;;;;;;;;5040844;28;20017;-73
2023/01/04 07:37:49;;;;;;;0.20;0.20;;;;;;;;;;5031495;28;20029;-73
2023/01/04 07:40:15;;;;;;;0.22;0.22;;;;;;;;;;5031959;28;20074;-73
2023/01/04 07:42:40;;;;;;;0.10;0.10;;;;;;;;;;5031872;28;20061;-73
2023/01/04 07:45:06;;;;;;;0.10;0.10;;;;;;;;;;5031984;28;20090;-73
2023/01/04 07:47:31;;;;;;;0.10;0.10;;;;;;;;;;5030751;28;20431;-73
2023/01/04 07:49:57;;;;;;;0.10;0.10;;;;;;;;;;5031830;28;20033;-74
2023/01/04 07:52:22;;;;;;;1.00;1.00;;;;;;;;;;5031500;28;20029;-73
2023/01/04 07:54:48;;;;;;;0.10;0.10;;;;;;;;;;5013746;28;20121;-74
2023/01/04 07:57:13;;;;;;;0.10;0.10;;;;;;;;;;5031876;28;20026;-74
2023/01/04 07:59:39;;;;;;;0.20;0.20;;;;;;;;;;5030732;28;20017;-72
2023/01/04 08:02:04;;;;;;;0.55;0.55;;;;;;;;;;5031660;28;20401;-73
2023/01/04 08:04:30;;;;;;;0.10;0.10;;;;;;;;;;5031657;28;20054;-71
2023/01/04 08:06:55;;;;;;;0.10;0.10;;;;;;;;;;5031879;28;20025;-72
2023/01/04 08:09:21;;;;;;;0.10;0.10;;;;;;;;;;5030250;28;20100;-72
2023/01/04 08:11:46;;;;;;;0.20;0.20;;;;;;;;;;5031157;28;20036;-71
2023/01/04 08:14:12;;;;;;;0.20;0.20;;;;;;;;;;5031518;28;20465;-70
2023/01/04 08:16:39;;;;;;;0.10;0.10;;;;;;;;;;5031358;28;20037;-70
2023/01/04 08:19:06;;;;;;;0.10;0.10;;;;;;;;;;5030842;28;20014;-70
2023/01/04 08:21:33;;;;;;;0.50;0.50;;;;;;;;;;5031122;28;20037;-71
2023/01/04 08:23:59;;;;;;;0.20;0.20;;;;;;;;;;5029841;28;20020;-70
2023/01/04 08:26:24;;;;;;;0.30;0.30;;;;;;;;;;5031093;28;20021;-69
2023/01/04 08:28:50;;;;;;;0.15;0.15;;;;;;;;;;5031259;28;20029;-70
2023/01/04 08:31:17;;;;;;;0.10;0.10;;;;;;;;;;5013543;28;20342;-71
2023/01/04 08:33:43;;;;;;;0.20;0.20;;;;;;;;;;5030555;28;20056;-70
2023/01/04 08:36:10;;;;;;;0.10;0.10;;;;;;;;;;5029872;28;20440;-70
2023/01/04 08:38:35;;;;;;;0.20;0.20;;;;;;;;;;5026071;28;20052;-70
2023/01/04 08:41:01;;;;;;;0.20;0.20;;;;;;;;;;5018141;28;20026;-73
2023/01/04 08:43:26;;;;;;;1.85;1.75;;;;;;;;;;5010742;28;20717;-72
2023/01/04 08:45:52;;;;;;;0.20;0.20;;;;;;;;;;5010784;28;20025;-70
2023/01/04 08:48:17;;;;;;;0.10;0.10;;;;;;;;;;5010030;28;20122;-70
2023/01/04 08:50:43;;;;;;;0.20;0.20;;;;;;;;;;5010923;28;20021;-70
2023/01/04 08:53:09;;;;;;;0.30;0.30;;;;;;;;;;5010958;28;20034;-71
2023/01/04 08:55:35;;;;;;;0.10;0.10;;;;;;;;;;5010174;28;20058;-70
2023/01/04 08:58:00;;;;;;;0.38;0.38;;;;;;;;;;5025734;28;20064;-70
2023/01/04 09:00:26;;;;;;;23.80;13.50;;;;;;;;;;5011073;28;20861;-70
2023/01/04 09:02:51;;;;;;;0.60;0.60;;;;;;;;;;5010780;28;20045;-70
2023/01/04 09:05:17;;;;;;;0.17;0.17;;;;;;;;;;5010732;28;20025;-70
2023/01/04 09:07:43;;;;;;;0.20;0.20;;;;;;;;;;5010694;28;20506;-70
2023/01/04 09:10:08;;;;;;;0.30;0.30;;;;;;;;;;5010438;28;20018;-70
2023/01/04 09:12:34;;;;;;;0.30;0.30;;;;;;;;;;5010562;28;20029;-70
2023/01/04 09:14:59;;;;;;;0.15;0.15;;;;;;;;;;5009903;28;20529;-70
2023/01/04 09:17:25;;;;;;;0.30;0.30;;;;;;;;;;5010451;28;20034;-69
2023/01/04 09:19:50;;;;;;;0.50;0.50;;;;;;;;;;5008814;28;20021;-71
2023/01/04 09:22:15;;;;;;;0.75;0.75;;;;;;;;;;5025496;28;20088;-70
2023/01/04 09:24:41;;;;;;;0.30;0.30;;;;;;;;;;5009443;28;20048;-70
2023/01/04 09:27:06;;;;;;;1.15;1.10;;;;;;;;;;5009140;28;20030;-70
2023/01/04 09:29:32;;;;;;;0.20;0.20;;;;;;;;;;5008837;28;20048;-69
2023/01/04 09:31:57;;;;;;;0.30;0.30;;;;;;;;;;5009696;28;20022;-69
2023/01/04 09:34:23;;;;;;;0.43;0.43;;;;;;;;;;5009859;28;20033;-69
2023/01/04 09:36:49;;;;;;;0.20;0.20;;;;;;;;;;5010280;28;20034;-70
2023/01/04 09:39:15;;;;;;;0.10;0.10;;;;;;;;;;5023243;28;20095;-70
2023/01/04 09:41:46;;;;;;;0.20;0.20;;;;;;;;;;5028545;28;20049;-72
2023/01/04 09:44:18;;;;;;;0.20;0.20;;;;;;;;;;5038816;28;20029;-70
2023/01/04 09:46:47;;;;;;;0.77;0.77;;;;;;;;;;5035793;28;20229;-70
2023/01/04 09:49:13;;;;;;;1.13;1.03;;;;;;;;;;5031754;28;20033;-69
2023/01/04 09:51:41;;;;;;;0.30;0.30;;;;;;;;;;5032233;28;20022;-70
2023/01/04 09:54:16;;;;;;;0.30;0.30;;;;;;;;;;5044439;28;20071;-69
2023/01/04 09:56:47;;;;;;;0.85;0.70;;;;;;;;;;5034268;28;20039;-70
2023/01/04 09:59:14;;;;;;;0.20;0.20;;;;;;;;;;5026203;28;20036;-69
2023/01/04 10:01:58;;;;;;;0.32;0.32;;;;;;;;;;5026193;28;20018;-70
2023/01/04 10:04:28;;;;;;;0.30;0.30;;;;;;;;;;5025971;28;20083;-69
2023/01/04 10:06:53;;;;;;;0.75;0.75;;;;;;;;;;5026222;28;20018;-69
2023/01/04 10:09:19;;;;;;;0.38;0.38;;;;;;;;;;5008096;28;20064;-71
2023/01/04 10:11:55;;;;;;;1.20;0.93;;;;;;;;;;5025167;28;20029;-69
2023/01/04 10:14:20;;;;;;;3.60;2.20;;;;;;;;;;5025299;28;20511;-69
2023/01/04 10:16:48;;;;;;;0.65;0.65;;;;;;;;;;5025614;28;20014;-71
2023/01/04 10:19:33;;;;;;;0.30;0.30;;;;;;;;;;5025417;28;20734;-71
2023/01/04 10:22:18;;;;;;;2.72;1.83;;;;;;;;;;5026130;28;20021;-69
2023/01/04 10:25:10;;;;;;;3.00;2.30;;;;;;;;;;5026701;28;20041;-68
2023/01/04 10:27:35;;;;;;;0.75;0.60;;;;;;;;;;5028288;28;20457;-69
2023/01/04 10:30:04;;;;;;;6.78;4.43;;;;;;;;;;5029200;28;20041;-70
2023/01/04 10:32:29;;;;;;;6.70;4.20;;;;;;;;;;5029184;28;20022;-67
2023/01/04 10:34:54;;;;;;;0.57;0.57;;;;;;;;;;5012018;28;20040;-69
2023/01/04 10:37:20;;;;;;;2.80;2.58;;;;;;;;;;5029490;28;20030;-67
2023/01/04 10:39:49;;;;;;;0.30;0.30;;;;;;;;;;5010973;28;20065;-70
2023/01/04 10:42:30;;;;;;;7.65;2.40;;;;;;;;;;4991510;28;20038;-69
2023/01/04 10:44:59;;;;;;;2.63;2.15;;;;;;;;;;5010078;28;20022;-69
2023/01/04 10:47:27;;;;;;;3.97;1.50;;;;;;;;;;5011341;28;20044;-71
2023/01/04 10:49:55;;;;;;;0.40;0.40;;;;;;;;;;5013331;28;20458;-70
2023/01/04 10:52:30;;;;;;;0.52;0.52;;;;;;;;;;5013371;28;20022;-67
2023/01/04 10:55:17;;;;;;;0.30;0.30;;;;;;;;;;5013229;28;20069;-68
2023/01/04 10:57:51;;;;;;;0.50;0.50;;;;;;;;;;5012893;28;20462;-68
2023/01/04 11:00:18;;;;;;;0.40;0.40;;;;;;;;;;5013108;28;20361;-70
2023/01/04 11:02:47;;;;;;;1.13;0.90;;;;;;;;;;5013513;28;20026;-70
2023/01/04 11:05:15;;;;;;;1.20;1.10;;;;;;;;;;5013000;28;20029;-69
2023/01/04 11:07:52;;;;;;;0.30;0.30;;;;;;;;;;5013036;28;20029;-68
2023/01/04 11:10:22;;;;;;;0.80;0.77;;;;;;;;;;5032438;28;20037;-67
2023/01/04 11:12:48;;;;;;;0.20;0.20;;;;;;;;;;5032539;28;20026;-67
2023/01/04 11:15:13;;;;;;;3.10;1.65;;;;;;;;;;5033057;28;20484;-67
2023/01/04 11:17:40;;;;;;;0.20;0.20;;;;;;;;;;5032467;28;20031;-66
2023/01/04 11:20:06;;;;;;;0.65;0.65;;;;;;;;;;5032421;28;20457;-65
2023/01/04 11:22:40;;;;;;;4.50;0.40;;;;;;;;;;5032443;28;20025;-67
2023/01/04 11:25:14;;;;;;;0.40;0.40;;;;;;;;;;5032604;28;20041;-71
2023/01/04 11:28:01;;;;;;;0.75;0.65;;;;;;;;;;5032488;28;20033;-73
2023/01/04 11:30:48;;;;;;;14.10;5.05;;;;;;;;;;5032231;28;20049;-71
2023/01/04 11:33:18;;;;;;;2.55;1.85;;;;;;;;;;5032820;28;20040;-74
2023/01/04 11:35:45;;;;;;;5.93;2.47;;;;;;;;;;5032185;28;20350;-72
2023/01/04 11:38:18;;;;;;;0.20;0.20;;;;;;;;;;5031914;28;20469;-72
2023/01/04 11:40:57;;;;;;;0.40;0.40;;;;;;;;;;5014372;28;20141;-72
2023/01/04 11:43:23;;;;;;;1.30;0.88;;;;;;;;;;5032135;28;20111;-72
2023/01/04 11:45:53;;;;;;;0.20;0.20;;;;;;;;;;5031964;28;20167;-71
2023/01/04 11:48:18;;;;;;;;;;;;;;;;;;5032587;28;20029;-72
2023/01/04 11:50:45;;;;;;;2.00;1.33;;;;;;;;;;5031989;28;19916;-72
2023/01/04 11:53:29;;;;;;;0.47;0.45;;;;;;;;;;5031780;28;20033;-72
2023/01/04 11:56:07;;;;;;;0.68;0.68;;;;;;;;;;5014286;28;20104;-72
2023/01/04 11:58:32;;;;;;;0.35;0.35;;;;;;;;;;5032065;28;20048;-72
2023/01/04 12:00:58;;;;;;;0.73;0.40;;;;;;;;;;5032499;28;20075;-72
2023/01/04 12:03:33;;;;;;;0.35;0.35;;;;;;;;;;5031795;28;20079;-73
2023/01/04 12:05:59;;;;;;;0.20;0.20;;;;;;;;;;5031863;28;20528;-72
2023/01/04 12:08:27;;;;;;;0.20;0.20;;;;;;;;;;5014306;28;20028;-73
2023/01/04 12:10:52;;;;;;;0.30;0.30;;;;;;;;;;5031639;28;20060;-73
2023/01/04 12:13:18;;;;;;;0.40;0.40;;;;;;;;;;5031594;28;20068;-73
2023/01/04 12:15:43;;;;;;;0.20;0.20;;;;;;;;;;5031085;28;20025;-72
2023/01/04 12:18:28;;;;;;;0.30;0.30;;;;;;;;;;5031379;28;20026;-73
2023/01/04 12:20:55;;;;;;;0.20;0.20;;;;;;;;;;5031751;28;20021;-73
2023/01/04 12:23:20;;;;;;;0.30;0.30;;;;;;;;;;5031341;28;20026;-73
2023/01/04 12:25:50;;;;;;;0.20;0.20;;;;;;;;;;5031393;28;20505;-73
2023/01/04 12:28:29;;;;;;;0.43;0.43;;;;;;;;;;5013434;28;20033;-74
2023/01/04 12:30:54;;;;;;;1.20;0.45;;;;;;;;;;5031017;28;20037;-73
2023/01/04 12:33:29;;;;;;;0.52;0.47;;;;;;;;;;5031011;28;20017;-73
2023/01/04 12:36:11;;;;;;;0.30;0.30;;;;;;;;;;5030792;28;20483;-73
2023/01/04 12:38:56;;;;;;;0.20;0.20;;;;;;;;;;5031291;28;20072;-73
2023/01/04 12:41:23;;;;;;;0.20;0.20;;;;;;;;;;5030521;28;20346;-74
2023/01/04 12:43:49;;;;;;;1.50;1.40;;;;;;;;;;5030567;28;20021;-74
2023/01/04 12:49:24;;;;;;;0.40;0.40;;;;;;;;;;5030897;28;20112;-73
2023/01/04 12:52:10;;;;;;;0.55;0.55;;;;;;;;;;5012995;28;20034;-73
2023/01/04 12:54:49;;;;;;;1.20;0.95;;;;;;;;;;5029137;28;20009;-72
2023/01/04 12:57:23;;;;;;;1.00;0.90;;;;;;;;;;5025653;28;20028;-73
2023/01/04 12:59:56;;;;;;;1.85;1.52;;;;;;;;;;5030220;28;20025;-74
2023/01/04 13:02:21;;;;;;;0.30;0.30;;;;;;;;;;5027297;28;20032;-74
2023/01/04 13:04:47;;;;;;;1.63;1.25;;;;;;;;;;5029043;28;20025;-74
2023/01/04 13:07:16;;;;;;;0.55;0.55;;;;;;;;;;5029680;28;20036;-73
2023/01/04 13:09:43;;;;;;;0.20;0.20;;;;;;;;;;5028642;28;20099;-73
2023/01/04 13:12:24;;;;;;;0.20;0.20;;;;;;;;;;5029965;28;20022;-74
2023/01/04 13:14:50;;;;;;;0.20;0.20;;;;;;;;;;5027999;28;20406;-74
2023/01/04 13:17:17;;;;;;;0.30;0.30;;;;;;;;;;5030030;28;20468;-75
2023/01/04 13:19:43;;;;;;;1.10;0.77;;;;;;;;;;5028757;28;20032;-75
2023/01/04 13:22:16;;;;;;;0.20;0.20;;;;;;;;;;5026846;28;20041;-74
2023/01/04 13:24:42;;;;;;;0.20;0.20;;;;;;;;;;5027367;28;20036;-75
2023/01/04 13:27:12;;;;;;;1.58;1.15;;;;;;;;;;5029802;28;20029;-74
2023/01/04 13:29:39;;;;;;;3.53;2.05;;;;;;;;;;5026571;28;20025;-74
2023/01/04 13:32:10;;;;;;;2.25;2.05;;;;;;;;;;5028538;28;20071;-74
2023/01/04 13:34:36;;;;;;;0.43;0.43;;;;;;;;;;5028195;28;20105;-73
2023/01/04 13:37:11;;;;;;;2.30;1.17;;;;;;;;;;5028480;28;20017;-74
2023/01/04 13:39:38;;;;;;;0.22;0.22;;;;;;;;;;5028468;28;20046;-74
2023/01/04 13:42:04;;;;;;;0.38;0.38;;;;;;;;;;5027301;28;20038;-73
2023/01/04 13:44:29;;;;;;;0.40;0.40;;;;;;;;;;5027833;28;20105;-74
2023/01/04 13:46:56;;;;;;;0.30;0.30;;;;;;;;;;5027878;28;20470;-73
2023/01/04 13:49:22;;;;;;;0.25;0.25;;;;;;;;;;5027948;28;20044;-74
2023/01/04 13:51:48;;;;;;;0.13;0.13;;;;;;;;;;5027305;28;20036;-74
2023/01/04 13:54:20;;;;;;;1.15;0.80;;;;;;;;;;5027567;28;20021;-74
2023/01/04 13:56:46;;;;;;;0.47;0.47;;;;;;;;;;5028786;28;20059;-74
2023/01/04 13:59:12;;;;;;;0.30;0.30;;;;;;;;;;5029206;28;20170;-74
2023/01/04 14:01:45;;;;;;;5.53;3.63;;;;;;;;;;5029999;28;20026;-74
2023/01/04 14:04:13;;;;;;;0.40;0.40;;;;;;;;;;5029695;28;20419;-73
2023/01/04 14:06:41;;;;;;;0.68;0.68;;;;;;;;;;5029688;28;20450;-75
2023/01/04 14:09:09;;;;;;;4.78;2.55;;;;;;;;;;5029144;28;20029;-73
2023/01/04 14:14:51;;;;;;;5.00;2.60;;;;;;;;;;5035357;28;20040;-73
2023/01/04 14:17:18;;;;;;;0.22;0.22;;;;;;;;;;5011910;28;20041;-74
2023/01/04 14:20:00;;;;;;;4.07;2.58;;;;;;;;;;5038310;28;20476;-74
2023/01/04 14:22:25;;;;;;;1.10;1.00;;;;;;;;;;5032896;28;20492;-74
2023/01/04 14:24:52;;;;;;;0.22;0.22;;;;;;;;;;5037278;28;20029;-73
2023/01/04 14:27:30;;;;;;;0.73;0.73;;;;;;;;;;5019395;28;20029;-74
2023/01/04 14:29:56;;;;;;;0.52;0.52;;;;;;;;;;5052763;28;20073;-73
2023/01/04 14:32:22;;;;;;;0.30;0.30;;;;;;;;;;5053074;28;20056;-74
2023/01/04 14:34:47;;;;;;;2.03;1.58;;;;;;;;;;5051602;28;20460;-73
2023/01/04 14:37:13;;;;;;;2.15;0.95;;;;;;;;;;5052031;28;20036;-74
2023/01/04 14:39:38;;;;;;;0.20;0.20;;;;;;;;;;5051363;28;20392;-74
2023/01/04 14:42:05;;;;;;;0.30;0.30;;;;;;;;;;5051487;28;20017;-74
2023/01/04 14:44:32;;;;;;;0.50;0.50;;;;;;;;;;5051706;28;20020;-74
2023/01/04 14:46:59;;;;;;;0.65;0.65;;;;;;;;;;5051685;28;20045;-74
2023/01/04 14:49:27;;;;;;;0.60;0.60;;;;;;;;;;5052052;28;20040;-74
2023/01/04 14:51:59;;;;;;;1.67;0.90;;;;;;;;;;5051208;28;20035;-73
2023/01/04 14:54:26;;;;;;;0.30;0.30;;;;;;;;;;5033189;28;20025;-73
2023/01/04 14:56:52;;;;;;;0.30;0.30;;;;;;;;;;5031723;28;20465;-70
2023/01/04 14:59:24;;;;;;;3.53;2.75;;;;;;;;;;5050715;28;20118;-70
2023/01/04 15:01:53;;;;;;;3.00;2.15;;;;;;;;;;5030989;28;20053;-70
2023/01/04 15:04:18;;;;;;;0.60;0.60;;;;;;;;;;5032888;28;20030;-71
2023/01/04 15:06:57;;;;;;;0.25;0.25;;;;;;;;;;5032476;28;20030;-71
2023/01/04 15:09:23;;;;;;;0.40;0.40;;;;;;;;;;5030802;28;20119;-71
2023/01/04 15:11:49;;;;;;;9.07;1.52;;;;;;;;;;5030688;28;20160;-71
2023/01/04 15:14:14;;;;;;;0.60;0.52;;;;;;;;;;5031717;28;20135;-69
2023/01/04 15:16:40;;;;;;;0.60;0.60;;;;;;;;;;5032260;28;20025;-70
2023/01/04 15:19:05;;;;;;;0.30;0.30;;;;;;;;;;5032327;28;20032;-71
2023/01/04 15:21:31;;;;;;;0.20;0.20;;;;;;;;;;5030446;28;20022;-70
2023/01/04 15:23:56;;;;;;;5.05;1.75;;;;;;;;;;5030577;28;20441;-70
2023/01/04 15:26:21;;;;;;;0.22;0.22;;;;;;;;;;5012292;28;20041;-69
2023/01/04 15:28:47;;;;;;;1.27;1.17;;;;;;;;;;5030360;28;20052;-70
2023/01/04 15:31:13;;;;;;;1.95;1.27;;;;;;;;;;5030443;28;20017;-69
2023/01/04 15:33:38;;;;;;;0.75;0.38;;;;;;;;;;5029674;28;20061;-70